createdAt,value
2019-01-19T00:01:37.484Z,-4.20
2019-01-19T00:04:33.309Z,-4.20
2019-01-19T00:07:38.292Z,-4.20
2019-01-19T00:10:30.360Z,-4.20
2019-01-19T00:13:46.504Z,-4.30
2019-01-19T00:16:41.240Z,-4.30
2019-01-19T00:19:52.524Z,-4.30
2019-01-19T00:22:34.249Z,-4.30
2019-01-19T00:25:59.565Z,-4.30
2019-01-19T00:28:38.366Z,-4.30
2019-01-19T00:31:25.773Z,-4.30
2019-01-19T00:34:03.074Z,-4.30
2019-01-19T00:37:02.025Z,-4.30
2019-01-19T00:40:21.535Z,-4.40
2019-01-19T00:43:08.962Z,-4.40
2019-01-19T00:46:19.689Z,-4.40
2019-01-19T00:48:55.173Z,-4.40
2019-01-19T00:52:13.258Z,-4.50
2019-01-19T00:55:44.682Z,-4.40
2019-01-19T00:58:47.036Z,-4.50
2019-01-19T01:01:39.408Z,-4.60
2019-01-19T01:04:37.865Z,-4.60
2019-01-19T01:07:42.689Z,-4.60
2019-01-19T01:10:29.584Z,-4.60
2019-01-19T01:13:32.495Z,-4.60
2019-01-19T01:16:41.521Z,-4.60
2019-01-19T01:19:28.408Z,-4.60
2019-01-19T01:22:29.800Z,-4.60
2019-01-19T01:25:27.293Z,-4.60
2019-01-19T01:28:34.820Z,-4.60
2019-01-19T01:31:37.377Z,-4.60
2019-01-19T01:34:49.650Z,-4.70
2019-01-19T01:37:41.780Z,-4.70
2019-01-19T01:40:47.577Z,-4.70
2019-01-19T01:44:06.789Z,-4.80
2019-01-19T01:47:02.000Z,-4.80
2019-01-19T01:49:44.943Z,-4.80
2019-01-19T01:53:06.999Z,-4.90
2019-01-19T01:55:41.938Z,-4.90
2019-01-19T01:58:25.425Z,-4.90
2019-01-19T02:01:04.558Z,-4.90
2019-01-19T02:03:59.417Z,-4.90
2019-01-19T02:07:16.580Z,-5.00
2019-01-19T02:10:14.084Z,-5.00
2019-01-19T02:12:59.412Z,-5.00
2019-01-19T02:16:12.253Z,-5.00
2019-01-19T02:19:28.370Z,-5.00
2019-01-19T02:22:31.227Z,-5.00
2019-01-19T02:25:25.441Z,-5.10
2019-01-19T02:28:30.249Z,-5.10
2019-01-19T02:31:54.950Z,-5.20
2019-01-19T02:34:53.270Z,-5.20
2019-01-19T02:37:43.766Z,-5.30
2019-01-19T02:40:22.201Z,-5.30
2019-01-19T02:43:26.321Z,-5.30
2019-01-19T02:46:21.521Z,-5.30
2019-01-19T02:49:26.878Z,-5.30
2019-01-19T02:52:52.378Z,-5.40
2019-01-19T02:56:11.550Z,-5.40
2019-01-19T02:59:15.917Z,-5.40
2019-01-19T03:02:08.722Z,-5.40
2019-01-19T03:05:01.512Z,-5.40
2019-01-19T03:07:46.153Z,-5.40
2019-01-19T03:10:42.925Z,-5.50
2019-01-19T03:13:56.249Z,-5.50
2019-01-19T03:17:09.488Z,-5.60
2019-01-19T03:20:01.514Z,-5.60
2019-01-19T03:22:58.774Z,-5.50
2019-01-19T03:25:58.313Z,-5.60
2019-01-19T03:29:21.161Z,-5.60
2019-01-19T03:32:19.000Z,-5.60
2019-01-19T03:35:11.246Z,-5.60
2019-01-19T03:38:21.873Z,-5.60
2019-01-19T03:41:30.985Z,-5.60
2019-01-19T03:44:45.760Z,-5.60
2019-01-19T03:47:32.586Z,-5.60
2019-01-19T03:50:31.326Z,-5.60
2019-01-19T03:53:06.542Z,-5.60
2019-01-19T03:56:02.736Z,-5.60
2019-01-19T03:58:52.453Z,-5.60
2019-01-19T04:01:48.513Z,-5.60
2019-01-19T04:04:37.304Z,-5.60
2019-01-19T04:07:32.042Z,-5.60
2019-01-19T04:10:11.094Z,-5.60
2019-01-19T04:13:16.490Z,-5.60
2019-01-19T04:16:08.713Z,-5.60
2019-01-19T04:19:33.520Z,-5.60
2019-01-19T04:22:36.965Z,-5.60
2019-01-19T04:25:30.432Z,-5.60
2019-01-19T04:28:00.944Z,-5.60
2019-01-19T04:30:29.930Z,-5.60
2019-01-19T04:32:58.741Z,-5.60
2019-01-19T04:35:27.625Z,-5.60
2019-01-19T04:37:56.494Z,-5.70
2019-01-19T04:40:25.382Z,-5.70
2019-01-19T04:42:54.695Z,-5.70
2019-01-19T04:45:23.881Z,-5.70
2019-01-19T04:47:52.852Z,-5.70
2019-01-19T04:50:21.667Z,-5.70
2019-01-19T04:52:50.560Z,-5.70
2019-01-19T04:55:19.418Z,-5.70
2019-01-19T04:57:48.215Z,-5.80
2019-01-19T05:00:20.205Z,-5.70
2019-01-19T05:02:57.791Z,-5.80
2019-01-19T05:05:24.566Z,-5.70
2019-01-19T05:08:07.481Z,-5.80
2019-01-19T05:10:37.233Z,-5.80
2019-01-19T05:13:06.556Z,-5.80
2019-01-19T05:15:35.947Z,-5.80
2019-01-19T05:18:06.194Z,-5.80
2019-01-19T05:20:35.659Z,-5.80
2019-01-19T05:23:05.170Z,-5.80
2019-01-19T05:25:34.484Z,-5.80
2019-01-19T05:28:16.427Z,-5.80
2019-01-19T05:30:45.456Z,-5.80
2019-01-19T05:33:14.286Z,-5.80
2019-01-19T05:35:43.529Z,-5.90
2019-01-19T05:38:12.415Z,-5.90
2019-01-19T05:40:51.947Z,-5.80
2019-01-19T05:43:20.810Z,-5.80
2019-01-19T05:45:49.714Z,-5.80
2019-01-19T05:48:18.577Z,-5.80
2019-01-19T05:50:47.352Z,-5.80
2019-01-19T05:53:16.398Z,-5.80
2019-01-19T05:55:45.459Z,-5.90
2019-01-19T05:58:14.266Z,-5.90
2019-01-19T06:00:43.309Z,-5.90
2019-01-19T06:03:14.636Z,-5.90
2019-01-19T06:06:15.609Z,-5.90
2019-01-19T06:08:44.533Z,-5.90
2019-01-19T06:11:13.617Z,-5.90
2019-01-19T06:13:42.801Z,-5.90
2019-01-19T06:16:11.618Z,-5.90
2019-01-19T06:18:40.773Z,-5.90
2019-01-19T06:21:09.800Z,-5.90
2019-01-19T06:23:38.597Z,-5.80
2019-01-19T06:26:07.515Z,-5.80
2019-01-19T06:28:36.415Z,-5.70
2019-01-19T06:31:07.094Z,-5.70
2019-01-19T06:33:36.054Z,-5.70
2019-01-19T06:36:04.989Z,-5.70
2019-01-19T06:38:33.854Z,-5.60
2019-01-19T06:41:02.968Z,-5.70
2019-01-19T06:43:31.783Z,-5.80
2019-01-19T06:46:00.602Z,-5.80
2019-01-19T06:48:29.490Z,-5.80
2019-01-19T06:50:58.333Z,-5.80
2019-01-19T06:53:27.219Z,-5.80
2019-01-19T06:55:56.089Z,-5.80
2019-01-19T06:58:24.968Z,-5.80
2019-01-19T07:00:53.832Z,-5.80
2019-01-19T07:03:22.657Z,-5.80
2019-01-19T07:05:52.139Z,-5.90
2019-01-19T07:08:21.440Z,-5.80
2019-01-19T07:10:50.469Z,-5.80
2019-01-19T07:13:19.546Z,-5.80
2019-01-19T07:15:48.350Z,-5.90
2019-01-19T07:18:17.301Z,-5.90
2019-01-19T07:20:46.105Z,-5.90
2019-01-19T07:23:17.532Z,-5.90
2019-01-19T07:25:46.346Z,-5.90
2019-01-19T07:28:15.289Z,-5.90
2019-01-19T07:30:44.653Z,-5.90
2019-01-19T07:33:13.529Z,-5.90
2019-01-19T07:35:42.400Z,-5.90
2019-01-19T07:38:13.438Z,-5.80
2019-01-19T07:40:42.336Z,-5.80
2019-01-19T07:43:14.037Z,-5.80
2019-01-19T07:45:42.838Z,-5.80
2019-01-19T07:48:12.094Z,-5.90
2019-01-19T07:50:41.128Z,-5.90
2019-01-19T07:53:10.089Z,-5.90
2019-01-19T07:55:39.014Z,-5.80
2019-01-19T07:58:08.213Z,-5.80
2019-01-19T08:00:37.088Z,-5.70
2019-01-19T08:03:08.407Z,-5.60
2019-01-19T08:05:37.289Z,-5.60
2019-01-19T08:08:06.216Z,-5.50
2019-01-19T08:10:35.282Z,-5.40
2019-01-19T08:13:04.233Z,-5.30
2019-01-19T08:15:33.307Z,-5.20
2019-01-19T08:18:02.151Z,-5.20
2019-01-19T08:20:31.093Z,-5.20
2019-01-19T08:23:00.001Z,-5.10
2019-01-19T08:25:29.415Z,-5.00
2019-01-19T08:27:58.286Z,-4.90
2019-01-19T08:30:29.148Z,-4.80
2019-01-19T08:32:58.034Z,-4.70
2019-01-19T08:35:27.089Z,-4.70
2019-01-19T08:37:55.887Z,-4.70
2019-01-19T08:40:27.288Z,-4.70
2019-01-19T08:43:21.219Z,-4.60
2019-01-19T08:45:50.050Z,-4.50
2019-01-19T08:48:18.950Z,-4.30
2019-01-19T08:50:48.037Z,-4.30
2019-01-19T08:53:16.932Z,-4.20
2019-01-19T08:55:45.892Z,-4.10
2019-01-19T08:58:14.856Z,-4.00
2019-01-19T09:00:43.640Z,-4.00
2019-01-19T09:03:12.449Z,-3.70
2019-01-19T09:05:41.484Z,-3.50
2019-01-19T09:08:10.482Z,-3.00
2019-01-19T09:10:39.422Z,-1.90
2019-01-19T09:13:08.362Z,-1.50
2019-01-19T09:15:37.165Z,-1.50
2019-01-19T09:18:06.017Z,-1.90
2019-01-19T09:20:34.808Z,-2.30
2019-01-19T09:23:18.833Z,-2.70
2019-01-19T09:25:47.725Z,-2.90
2019-01-19T09:28:16.564Z,-2.90
2019-01-19T09:30:45.446Z,-2.70
2019-01-19T09:33:14.494Z,-2.40
2019-01-19T09:35:43.597Z,-2.40
2019-01-19T09:38:12.372Z,-1.90
2019-01-19T09:40:41.561Z,-1.20
2019-01-19T09:43:10.486Z,-1.00
2019-01-19T09:45:39.614Z,-0.80
2019-01-19T09:48:08.548Z,-0.20
2019-01-19T09:50:39.062Z,-0.60
2019-01-19T09:53:08.281Z,-0.70
2019-01-19T09:55:37.241Z,-1.10
2019-01-19T09:58:06.098Z,-1.50
2019-01-19T10:00:37.571Z,-1.80
2019-01-19T10:03:05.608Z,-2.00
2019-01-19T10:05:34.487Z,-1.90
2019-01-19T10:08:03.430Z,-2.10
2019-01-19T10:10:32.214Z,-2.10
2019-01-19T10:13:01.068Z,-2.00
2019-01-19T10:15:29.862Z,-2.00
2019-01-19T10:17:59.108Z,-2.00
2019-01-19T10:20:28.076Z,-2.00
2019-01-19T10:22:56.928Z,-2.00
2019-01-19T10:25:25.852Z,-2.00
2019-01-19T10:27:54.779Z,-2.10
2019-01-19T10:30:25.359Z,-2.10
2019-01-19T10:32:54.206Z,-2.10
2019-01-19T10:35:23.165Z,-2.20
2019-01-19T10:37:56.079Z,-2.10
2019-01-19T10:40:22.540Z,-2.20
2019-01-19T10:42:51.412Z,-2.10
2019-01-19T10:45:22.277Z,-1.90
2019-01-19T10:47:51.045Z,-1.90
2019-01-19T10:50:19.985Z,-1.90
2019-01-19T10:52:48.928Z,-1.80
2019-01-19T10:55:19.622Z,-1.90
2019-01-19T10:57:48.807Z,-1.90
2019-01-19T11:00:23.225Z,-2.00
2019-01-19T11:02:52.188Z,-2.10
2019-01-19T11:05:21.054Z,-2.00
2019-01-19T11:07:49.959Z,-1.90
2019-01-19T11:10:20.897Z,-1.80
2019-01-19T11:12:49.780Z,-1.80
2019-01-19T11:15:18.717Z,-1.90
2019-01-19T11:17:47.704Z,-1.80
2019-01-19T11:20:21.865Z,-1.80
2019-01-19T11:22:50.789Z,-1.90
2019-01-19T11:25:19.561Z,-2.00
2019-01-19T11:27:48.415Z,-1.80
2019-01-19T11:30:19.497Z,-1.80
2019-01-19T11:32:48.436Z,-2.00
2019-01-19T11:35:17.527Z,-1.90
2019-01-19T11:37:46.385Z,-2.00
2019-01-19T11:40:17.440Z,-2.00
2019-01-19T11:42:46.390Z,-2.00
2019-01-19T11:45:17.552Z,-2.00
2019-01-19T11:47:46.427Z,-2.00
2019-01-19T11:50:15.670Z,-1.90
2019-01-19T11:52:44.537Z,-1.90
2019-01-19T11:55:16.694Z,-1.90
2019-01-19T11:57:45.575Z,-1.90
2019-01-19T12:00:17.060Z,-2.00
2019-01-19T12:02:46.034Z,-1.90
2019-01-19T12:05:15.168Z,-1.90
2019-01-19T12:07:44.100Z,-1.90
2019-01-19T12:10:21.200Z,-1.80
2019-01-19T12:12:50.142Z,-1.70
2019-01-19T12:15:19.270Z,-1.60
2019-01-19T12:17:48.204Z,-1.70
2019-01-19T12:20:28.537Z,-1.70
2019-01-19T12:22:57.468Z,-1.70
2019-01-19T12:25:26.582Z,-1.70
2019-01-19T12:27:55.546Z,-1.70
2019-01-19T12:30:26.657Z,-1.50
2019-01-19T12:32:55.597Z,-1.60
2019-01-19T12:35:24.453Z,-1.50
2019-01-19T12:37:53.419Z,-1.50
2019-01-19T12:40:23.910Z,-1.60
2019-01-19T12:42:58.204Z,-1.50
2019-01-19T12:45:33.756Z,-1.60
2019-01-19T12:48:02.551Z,-1.60
2019-01-19T12:50:31.409Z,-1.60
2019-01-19T12:53:00.283Z,-1.60
2019-01-19T12:55:29.132Z,-1.60
2019-01-19T12:57:58.074Z,-1.60
2019-01-19T13:00:27.188Z,-1.60
2019-01-19T13:02:56.275Z,-1.60
2019-01-19T13:05:38.161Z,-1.60
2019-01-19T13:08:08.816Z,-1.50
2019-01-19T13:10:45.169Z,-1.50
2019-01-19T13:13:20.508Z,-1.60
2019-01-19T13:16:39.689Z,-1.60
2019-01-19T13:19:44.601Z,-1.50
2019-01-19T13:22:53.546Z,-1.60
2019-01-19T13:25:49.477Z,-1.70
2019-01-19T13:29:02.376Z,-1.70
2019-01-19T13:31:59.467Z,-1.60
2019-01-19T13:35:14.224Z,-1.60
2019-01-19T13:38:50.939Z,-1.60
2019-01-19T13:41:57.481Z,-1.60
2019-01-19T13:44:52.265Z,-1.60
2019-01-19T13:48:11.766Z,-1.80
2019-01-19T13:51:10.211Z,-1.70
2019-01-19T13:54:47.993Z,-1.70
2019-01-19T13:57:48.549Z,-1.70
2019-01-19T14:01:01.311Z,-1.60
2019-01-19T14:03:58.450Z,-1.70
2019-01-19T14:07:00.104Z,-1.80
2019-01-19T14:10:11.432Z,-1.80
2019-01-19T14:13:10.493Z,-1.70
2019-01-19T14:15:46.341Z,-1.80
2019-01-19T14:18:21.358Z,-1.80
2019-01-19T14:21:13.412Z,-1.80
2019-01-19T14:24:26.573Z,-1.80
2019-01-19T14:27:48.959Z,-1.70
2019-01-19T14:30:39.500Z,-1.70
2019-01-19T14:33:43.813Z,-1.70
2019-01-19T14:36:43.284Z,-1.70
2019-01-19T14:39:52.629Z,-1.70
2019-01-19T14:42:30.750Z,-1.80
2019-01-19T14:45:38.831Z,-1.80
2019-01-19T14:48:30.722Z,-1.90
2019-01-19T14:51:30.306Z,-1.80
2019-01-19T14:54:20.098Z,-1.80
2019-01-19T14:57:16.725Z,-1.90
2019-01-19T15:00:05.397Z,-1.90
2019-01-19T15:03:13.276Z,-1.90
2019-01-19T15:06:44.746Z,-1.90
2019-01-19T15:09:40.375Z,-1.90
2019-01-19T15:12:54.047Z,-2.00
2019-01-19T15:15:54.933Z,-2.10
2019-01-19T15:18:58.771Z,-2.20
2019-01-19T15:21:52.689Z,-2.30
2019-01-19T15:24:55.621Z,-2.30
2019-01-19T15:27:54.218Z,-2.30
2019-01-19T15:30:53.728Z,-2.30
2019-01-19T15:34:06.600Z,-2.40
2019-01-19T15:36:56.112Z,-2.50
2019-01-19T15:40:06.798Z,-2.50
2019-01-19T15:42:46.100Z,-2.50
2019-01-19T15:45:54.429Z,-2.50
2019-01-19T15:49:01.675Z,-2.50
2019-01-19T15:52:18.197Z,-2.60
2019-01-19T15:55:43.441Z,-2.60
2019-01-19T15:58:37.509Z,-2.80
2019-01-19T16:01:35.074Z,-2.70
2019-01-19T16:04:21.465Z,-2.90
2019-01-19T16:07:39.752Z,-3.00
2019-01-19T16:10:27.767Z,-3.10
2019-01-19T16:13:16.564Z,-3.20
2019-01-19T16:16:11.513Z,-3.30
2019-01-19T16:19:18.296Z,-3.50
2019-01-19T16:22:34.648Z,-3.60
2019-01-19T16:25:59.649Z,-3.80
2019-01-19T16:28:42.429Z,-3.90
2019-01-19T16:31:45.509Z,-4.00
2019-01-19T16:35:07.344Z,-4.10
2019-01-19T16:37:44.837Z,-4.10
2019-01-19T16:40:46.802Z,-4.20
2019-01-19T16:43:23.274Z,-4.30
2019-01-19T16:46:20.008Z,-4.40
2019-01-19T16:49:03.829Z,-4.50
2019-01-19T16:52:28.429Z,-4.50
2019-01-19T16:55:49.735Z,-4.60
2019-01-19T16:58:55.981Z,-4.60
2019-01-19T17:01:52.986Z,-4.70
2019-01-19T17:04:56.584Z,-4.80
2019-01-19T17:07:50.259Z,-4.90
2019-01-19T17:11:12.809Z,-4.90
2019-01-19T17:14:24.221Z,-4.90
2019-01-19T17:17:34.522Z,-5.00
2019-01-19T17:20:26.797Z,-5.10
2019-01-19T17:23:40.490Z,-5.20
2019-01-19T17:26:40.663Z,-5.20
2019-01-19T17:29:35.541Z,-5.20
2019-01-19T17:32:57.714Z,-5.30
2019-01-19T17:36:07.037Z,-5.30
2019-01-19T17:39:06.884Z,-5.40
2019-01-19T17:42:01.233Z,-5.40
2019-01-19T17:44:59.636Z,-5.50
2019-01-19T17:47:57.397Z,-5.50
2019-01-19T17:51:01.689Z,-5.60
2019-01-19T17:54:20.923Z,-5.60
2019-01-19T17:57:22.844Z,-5.70
2019-01-19T18:00:11.816Z,-5.70
2019-01-19T18:03:23.796Z,-5.70
2019-01-19T18:06:03.121Z,-5.70
2019-01-19T18:09:15.235Z,-5.70
2019-01-19T18:12:11.192Z,-5.80
2019-01-19T18:15:20.236Z,-5.80
2019-01-19T18:18:13.366Z,-5.90
2019-01-19T18:21:17.746Z,-5.90
2019-01-19T18:24:13.302Z,-5.90
2019-01-19T18:27:31.351Z,-6.00
2019-01-19T18:30:29.344Z,-6.00
2019-01-19T18:33:12.840Z,-6.00
2019-01-19T18:35:54.434Z,-6.10
2019-01-19T18:39:20.495Z,-6.10
2019-01-19T18:42:22.158Z,-6.10
2019-01-19T18:45:25.777Z,-6.20
2019-01-19T18:48:21.222Z,-6.20
2019-01-19T18:51:40.420Z,-6.30
2019-01-19T18:55:02.915Z,-6.30
2019-01-19T18:58:14.861Z,-6.30
2019-01-19T19:01:09.732Z,-6.40
2019-01-19T19:04:13.164Z,-6.30
2019-01-19T19:07:38.139Z,-6.30
2019-01-19T19:10:48.646Z,-6.30
2019-01-19T19:13:55.209Z,-6.40
2019-01-19T19:17:23.139Z,-6.40
2019-01-19T19:20:21.626Z,-6.50
2019-01-19T19:24:09.713Z,-6.60
2019-01-19T19:27:21.491Z,-6.60
2019-01-19T19:30:26.962Z,-6.70
2019-01-19T19:33:33.167Z,-6.80
2019-01-19T19:39:53.544Z,-6.80
2019-01-19T19:43:09.695Z,-6.80
2019-01-19T19:46:05.849Z,-6.80
2019-01-19T19:49:11.534Z,-6.80
2019-01-19T19:52:05.133Z,-6.90
2019-01-19T19:54:34.903Z,-6.90
2019-01-19T19:57:04.509Z,-7.00
2019-01-19T19:59:35.199Z,-7.10
2019-01-19T20:02:04.160Z,-7.10
2019-01-19T20:04:34.112Z,-7.10
2019-01-19T20:07:03.504Z,-7.10
2019-01-19T20:09:32.551Z,-7.10
2019-01-19T20:12:08.500Z,-7.10
2019-01-19T20:14:38.478Z,-7.20
2019-01-19T20:17:08.335Z,-7.20
2019-01-19T20:19:37.565Z,-7.20
2019-01-19T20:22:06.554Z,-7.30
2019-01-19T20:24:35.753Z,-7.20
2019-01-19T20:27:05.080Z,-7.20
2019-01-19T20:29:35.385Z,-7.20
2019-01-19T20:32:04.515Z,-7.20
2019-01-19T20:34:33.337Z,-7.20
2019-01-19T20:37:02.308Z,-7.20
2019-01-19T20:39:31.198Z,-7.20
2019-01-19T20:42:00.005Z,-7.20
2019-01-19T20:44:29.521Z,-7.30
2019-01-19T20:46:58.392Z,-7.30
2019-01-19T20:49:27.258Z,-7.30
2019-01-19T20:51:56.030Z,-7.40
2019-01-19T20:54:24.816Z,-7.40
2019-01-19T20:56:53.710Z,-7.40
2019-01-19T20:59:22.508Z,-7.40
2019-01-19T21:01:51.581Z,-7.40
2019-01-19T21:04:20.425Z,-7.50
2019-01-19T21:06:49.321Z,-7.50
2019-01-19T21:09:18.121Z,-7.50
2019-01-19T21:14:29.093Z,-7.60
2019-01-19T21:16:57.967Z,-7.60
2019-01-19T21:19:26.744Z,-7.60
2019-01-19T21:21:55.570Z,-7.70
2019-01-19T21:24:24.440Z,-7.70
2019-01-19T21:26:53.249Z,-7.70
2019-01-19T21:29:22.061Z,-7.70
2019-01-19T21:31:50.936Z,-7.70
2019-01-19T21:34:20.008Z,-7.70
2019-01-19T21:36:49.025Z,-7.80
2019-01-19T21:39:18.095Z,-7.70
2019-01-19T21:41:47.293Z,-7.80
2019-01-19T21:44:16.390Z,-7.80
2019-01-19T21:46:45.441Z,-7.80
2019-01-19T21:49:16.233Z,-7.80
2019-01-19T21:51:45.320Z,-7.80
2019-01-19T21:54:14.154Z,-7.90
2019-01-19T21:56:45.205Z,-7.90
2019-01-19T21:59:14.009Z,-7.90
2019-01-19T22:01:43.140Z,-7.90
2019-01-19T22:04:12.199Z,-7.90
2019-01-19T22:06:41.137Z,-8.00
2019-01-19T22:09:10.098Z,-8.00
2019-01-19T22:11:38.910Z,-8.00
2019-01-19T22:14:07.705Z,-8.00
2019-01-19T22:16:36.503Z,-8.00
2019-01-19T22:19:05.425Z,-8.00
2019-01-19T22:21:34.294Z,-8.00
2019-01-19T22:24:03.095Z,-8.00
2019-01-19T22:26:32.380Z,-8.00
2019-01-19T22:29:01.520Z,-8.00
2019-01-19T22:31:30.624Z,-8.00
2019-01-19T22:33:59.488Z,-8.10
2019-01-19T22:36:49.349Z,-8.10
2019-01-19T22:39:18.755Z,-8.10
2019-01-19T22:41:47.765Z,-8.10
2019-01-19T22:44:16.839Z,-8.10
2019-01-19T22:46:46.019Z,-8.10
2019-01-19T22:49:14.902Z,-8.10
2019-01-19T22:51:43.789Z,-8.10
2019-01-19T22:54:12.703Z,-8.00
2019-01-19T22:56:41.592Z,-8.10
2019-01-19T22:59:10.633Z,-8.10
2019-01-19T23:01:47.030Z,-8.10
2019-01-19T23:04:15.970Z,-8.10
2019-01-19T23:06:45.577Z,-8.20
2019-01-19T23:09:14.518Z,-8.20
2019-01-19T23:11:43.482Z,-8.20
2019-01-19T23:14:12.636Z,-8.20
2019-01-19T23:16:41.677Z,-8.10
2019-01-19T23:19:10.618Z,-8.00
2019-01-19T23:21:39.407Z,-8.00
2019-01-19T23:24:08.644Z,-8.00
2019-01-19T23:26:37.852Z,-8.10
2019-01-19T23:29:06.788Z,-8.10
2019-01-19T23:31:35.575Z,-8.00
2019-01-19T23:34:05.320Z,-7.90
2019-01-19T23:36:34.185Z,-7.90
2019-01-19T23:39:04.125Z,-7.90
2019-01-19T23:41:33.147Z,-8.00
2019-01-19T23:44:02.216Z,-7.90
2019-01-19T23:46:31.073Z,-7.90
2019-01-19T23:49:00.022Z,-7.80
2019-01-19T23:51:28.792Z,-7.90
2019-01-19T23:53:57.588Z,-7.90
2019-01-19T23:56:26.372Z,-8.00
2019-01-19T23:58:55.169Z,-7.90
